Time;durP1;ratioP1;P1;durP2;ratioP2;P2;SDS_P1;SDS_P2;PMS_P1;PMS_P2;Temp;Humidity;BMP_temperature;BMP_pressure;BME280_temperature;BME280_humidity;BME280_pressure;Samples;Min_cycle;Max_cycle;Signal;HPM_P1;HPM_P2
2024/01/31 00:00:24;;;;;;;6.43;2.10;;;;;;;2.46;71.48;102545.03;5023877;28;20354;-63
2024/01/31 00:02:49;;;;;;;5.90;1.92;;;;;;;2.39;72.04;102553.78;5023038;28;20044;-63
2024/01/31 00:05:15;;;;;;;3.75;1.17;;;;;;;2.36;72.35;102546.19;5022843;28;20044;-64
2024/01/31 00:07:43;;;;;;;7.03;2.45;;;;;;;2.37;72.26;102552.16;5029502;28;20112;-63
2024/01/31 00:10:09;;;;;;;4.28;1.77;;;;;;;2.33;72.58;102551.41;5024734;28;21272;-63
2024/01/31 00:12:35;;;;;;;5.47;2.30;;;;;;;2.30;72.51;102543.78;5022070;28;20527;-63
2024/01/31 00:15:00;;;;;;;5.07;1.60;;;;;;;2.29;72.42;102540.38;5024554;28;20114;-63
2024/01/31 00:17:26;;;;;;;9.02;1.85;;;;;;;2.32;72.17;102540.28;5022528;28;20115;-63
2024/01/31 00:19:52;;;;;;;6.35;1.98;;;;;;;2.30;72.23;102538.63;5023215;28;20119;-63
2024/01/31 00:22:17;;;;;;;10.30;1.67;;;;;;;2.40;71.29;102534.06;5023169;28;20040;-63
2024/01/31 00:24:43;;;;;;;4.60;1.23;;;;;;;2.46;70.96;102533.91;5031395;28;20170;-63
2024/01/31 00:27:08;;;;;;;4.93;1.85;;;;;;;2.42;70.76;102520.25;5047844;28;20033;-63
2024/01/31 00:29:34;;;;;;;4.97;1.42;;;;;;;2.49;69.45;102528.66;5030693;28;20508;-63
2024/01/31 00:31:59;;;;;;;10.20;2.28;;;;;;;2.57;68.91;102522.44;5024077;28;20060;-63
2024/01/31 00:34:24;;;;;;;8.38;2.13;;;;;;;2.65;68.74;102524.78;5021461;28;20143;-65
2024/01/31 00:36:50;;;;;;;4.65;1.45;;;;;;;2.56;69.08;102525.03;5021678;28;20028;-63
2024/01/31 00:39:15;;;;;;;4.25;1.48;;;;;;;2.55;69.29;102518.19;5027754;28;20052;-62
2024/01/31 00:41:41;;;;;;;6.85;1.45;;;;;;;2.56;68.93;102514.75;5024331;28;20036;-63
2024/01/31 00:44:06;;;;;;;6.68;1.50;;;;;;;2.56;68.82;102517.31;5048480;28;20061;-63
2024/01/31 00:46:32;;;;;;;5.60;1.38;;;;;;;2.36;69.21;102524.75;5022233;28;20481;-63
2024/01/31 00:48:57;;;;;;;6.95;1.70;;;;;;;2.18;70.31;102519.22;5024212;28;20033;-62
2024/01/31 00:51:23;;;;;;;2.92;1.25;;;;;;;2.39;68.88;102509.22;5022597;28;20033;-64
2024/01/31 00:53:48;;;;;;;3.80;1.40;;;;;;;2.31;69.83;102517.16;5024984;28;20098;-63
2024/01/31 00:56:14;;;;;;;4.57;1.02;;;;;;;2.10;70.22;102518.56;5026432;28;20036;-63
2024/01/31 00:58:39;;;;;;;7.47;1.70;;;;;;;2.13;70.22;102520.22;5039588;28;20029;-63
2024/01/31 01:01:04;;;;;;;5.10;1.40;;;;;;;2.38;68.98;102517.81;5026211;28;20056;-63
2024/01/31 01:03:30;;;;;;;5.75;1.23;;;;;;;2.39;69.41;102509.22;5021041;28;20049;-63
2024/01/31 01:05:55;;;;;;;8.25;1.27;;;;;;;2.28;69.29;102512.94;5021043;28;20103;-63
2024/01/31 01:08:21;;;;;;;6.38;1.27;;;;;;;2.29;69.79;102504.34;5022405;28;20025;-63
2024/01/31 01:10:46;;;;;;;4.00;1.38;;;;;;;2.30;69.92;102506.03;5025442;28;20120;-62
2024/01/31 01:13:12;;;;;;;4.35;1.70;;;;;;;2.33;70.22;102502.53;5020401;28;20064;-62
2024/01/31 01:15:37;;;;;;;5.88;1.23;;;;;;;2.30;70.17;102513.75;5021788;28;20033;-63
2024/01/31 01:18:03;;;;;;;6.95;2.03;;;;;;;2.26;70.44;102512.16;5023686;28;20033;-63
2024/01/31 01:20:28;;;;;;;5.55;0.95;;;;;;;2.22;70.66;102510.53;5022782;28;20033;-63
2024/01/31 01:22:55;;;;;;;4.90;1.33;;;;;;;2.23;70.54;102508.81;5021566;28;20037;-63
2024/01/31 01:25:21;;;;;;;3.75;1.40;;;;;;;2.20;70.66;102516.59;5033843;28;20068;-62
2024/01/31 01:27:50;;;;;;;5.00;1.90;;;;;;;2.19;71.04;102499.50;5029216;28;20652;-63
2024/01/31 01:30:18;;;;;;;6.07;1.60;;;;;;;2.19;71.04;102502.91;5021560;28;20469;-63
2024/01/31 01:32:43;;;;;;;4.20;1.45;;;;;;;2.14;72.05;102499.63;5020439;28;20049;-63
2024/01/31 01:35:09;;;;;;;4.32;1.10;;;;;;;2.10;72.30;102492.88;5020869;28;20382;-63
2024/01/31 01:37:34;;;;;;;6.20;1.30;;;;;;;2.08;72.41;102489.50;5019526;28;20124;-62
2024/01/31 01:40:00;;;;;;;9.13;1.98;;;;;;;2.09;72.35;102485.19;5021439;28;20033;-62
2024/01/31 01:42:25;;;;;;;4.38;1.48;;;;;;;2.07;71.55;102492.94;5034996;28;20436;-63
2024/01/31 01:44:50;;;;;;;2.95;1.17;;;;;;;2.08;71.24;102480.94;5037399;28;20126;-62
2024/01/31 01:47:16;;;;;;;3.22;0.75;;;;;;;2.11;70.79;102486.84;5021511;28;20029;-62
2024/01/31 01:49:43;;;;;;;3.20;1.00;;;;;;;2.12;70.89;102491.09;5020349;28;20413;-62
2024/01/31 01:52:10;;;;;;;3.85;1.45;;;;;;;2.18;71.00;102487.53;5021162;28;20085;-63
2024/01/31 01:54:36;;;;;;;5.82;1.58;;;;;;;2.14;71.10;102476.47;5026658;28;20546;-63
2024/01/31 01:57:02;;;;;;;4.57;1.55;;;;;;;2.06;71.61;102483.53;5025522;28;20052;-63
2024/01/31 01:59:27;;;;;;;4.55;1.52;;;;;;;2.11;71.18;102480.84;5039465;28;20040;-62
2024/01/31 02:01:53;;;;;;;11.93;2.00;;;;;;;2.06;71.71;102478.41;5021943;28;20068;-63
2024/01/31 02:04:21;;;;;;;6.55;1.95;;;;;;;2.06;71.33;102474.97;5023423;28;20041;-62
2024/01/31 02:06:47;;;;;;;4.90;1.58;;;;;;;2.03;71.51;102469.91;5019601;28;20079;-62
2024/01/31 02:09:13;;;;;;;5.90;0.85;;;;;;;2.00;71.29;102471.69;5022311;28;20052;-62
2024/01/31 02:11:38;;;;;;;3.15;1.30;;;;;;;2.01;71.46;102472.53;5025623;28;20032;-62
2024/01/31 02:14:04;;;;;;;3.47;1.20;;;;;;;2.06;71.26;102474.97;5020575;28;20037;-62
2024/01/31 02:16:29;;;;;;;7.30;1.83;;;;;;;2.11;71.08;102473.97;5021179;28;20030;-63
2024/01/31 02:18:55;;;;;;;6.20;1.65;;;;;;;2.09;71.74;102474.91;5019994;28;20111;-62
2024/01/31 02:21:24;;;;;;;4.38;1.33;;;;;;;2.03;72.26;102470.75;5019967;28;20051;-63
2024/01/31 02:23:49;;;;;;;4.25;1.52;;;;;;;2.02;72.44;102468.22;5022769;28;21100;-62
2024/01/31 02:26:15;;;;;;;8.40;1.95;;;;;;;2.03;72.09;102462.22;5032168;28;20044;-62
2024/01/31 02:28:40;;;;;;;3.95;1.48;;;;;;;2.03;72.17;102460.47;5029578;28;20036;-63
2024/01/31 02:31:05;;;;;;;5.65;1.70;;;;;;;2.06;71.57;102449.28;5019929;28;20496;-61
2024/01/31 02:33:31;;;;;;;5.63;1.27;;;;;;;2.08;71.39;102458.63;5020140;28;20103;-62
2024/01/31 02:35:56;;;;;;;5.95;1.90;;;;;;;2.15;70.98;102454.16;5022792;28;21350;-62
2024/01/31 02:38:22;;;;;;;3.65;1.13;;;;;;;2.13;71.15;102448.22;5019932;28;20029;-62
2024/01/31 02:40:47;;;;;;;5.35;1.08;;;;;;;2.10;70.84;102453.44;5020814;28;22572;-62
2024/01/31 02:43:13;;;;;;;7.57;1.50;;;;;;;2.08;70.95;102461.19;5036613;28;20033;-62
2024/01/31 02:45:38;;;;;;;3.75;1.13;;;;;;;2.08;71.02;102447.50;5026613;28;20111;-62
2024/01/31 02:48:04;;;;;;;4.88;0.90;;;;;;;2.03;71.14;102452.78;5034928;28;20025;-62
2024/01/31 02:50:31;;;;;;;4.43;1.27;;;;;;;2.05;71.20;102453.56;5046327;28;20098;-62
2024/01/31 02:52:56;;;;;;;4.05;1.10;;;;;;;2.06;71.21;102457.81;5028284;28;20087;-62
2024/01/31 02:55:22;;;;;;;2.80;1.10;;;;;;;2.08;71.51;102457.78;5022963;28;20478;-62
2024/01/31 02:57:48;;;;;;;3.28;1.08;;;;;;;2.08;71.36;102458.63;5030046;28;25127;-62
2024/01/31 03:00:14;;;;;;;2.35;1.50;;;;;;;2.14;70.88;102448.19;5031333;28;20056;-62
2024/01/31 03:02:42;;;;;;;3.95;1.55;;;;;;;2.17;71.04;102442.13;5018004;28;20626;-62
2024/01/31 03:05:08;;;;;;;4.15;1.55;;;;;;;2.14;71.37;102437.91;5030753;28;20087;-62
2024/01/31 03:07:34;;;;;;;3.70;1.33;;;;;;;2.13;71.53;102450.78;5022521;28;20154;-62
2024/01/31 03:09:59;;;;;;;5.63;1.05;;;;;;;2.15;71.23;102449.88;5023689;28;20172;-62
2024/01/31 03:12:25;;;;;;;6.80;1.20;;;;;;;2.15;71.39;102451.59;5029784;28;20404;-62
2024/01/31 03:14:50;;;;;;;4.28;1.00;;;;;;;2.19;70.57;102448.06;5049019;28;20033;-62
2024/01/31 03:17:16;;;;;;;2.80;1.55;;;;;;;2.18;71.45;102454.09;5023538;28;20102;-62
2024/01/31 03:19:41;;;;;;;2.55;0.88;;;;;;;2.22;71.00;102450.53;5024160;28;20382;-62
2024/01/31 03:22:08;;;;;;;7.70;1.10;;;;;;;2.24;70.66;102452.19;5023244;28;20076;-62
2024/01/31 03:24:34;;;;;;;5.57;1.20;;;;;;;2.21;71.12;102443.72;5023028;28;20119;-62
2024/01/31 03:27:00;;;;;;;5.70;1.02;;;;;;;2.21;70.98;102454.84;5038496;28;20392;-62
2024/01/31 03:29:25;;;;;;;5.57;1.52;;;;;;;2.19;71.27;102451.47;5028700;28;20040;-62
2024/01/31 03:31:51;;;;;;;4.75;1.38;;;;;;;2.19;71.29;102453.19;5025732;28;20068;-62
2024/01/31 03:34:17;;;;;;;4.88;1.45;;;;;;;2.17;71.33;102447.25;5024340;28;20029;-64
2024/01/31 03:36:42;;;;;;;3.28;1.33;;;;;;;2.14;71.70;102442.19;5021060;28;20044;-64
2024/01/31 03:39:08;;;;;;;16.05;2.00;;;;;;;2.14;71.59;102444.75;5024400;28;20033;-64
2024/01/31 03:41:33;;;;;;;3.13;1.15;;;;;;;2.17;71.08;102447.25;5022117;28;20037;-63
2024/01/31 03:43:59;;;;;;;4.65;1.00;;;;;;;2.21;70.70;102444.56;5047704;28;20392;-63
2024/01/31 03:46:25;;;;;;;6.22;1.30;;;;;;;2.24;70.65;102446.19;5029980;28;20102;-64
2024/01/31 03:48:51;;;;;;;3.08;1.13;;;;;;;2.22;70.81;102441.09;5021329;28;20040;-61
2024/01/31 03:51:20;;;;;;;4.90;1.30;;;;;;;2.21;71.08;102441.97;5025565;28;20051;-63
2024/01/31 03:53:46;;;;;;;4.57;1.35;;;;;;;2.19;71.30;102453.19;5022353;28;20098;-64
2024/01/31 03:56:12;;;;;;;9.32;1.25;;;;;;;2.20;70.56;102442.88;5025491;28;20102;-63
2024/01/31 03:58:39;;;;;;;4.03;0.93;;;;;;;2.20;70.39;102452.31;5037400;28;20032;-63
2024/01/31 04:01:04;;;;;;;2.83;0.90;;;;;;;2.17;70.42;102450.66;5029953;28;20882;-63
2024/01/31 04:03:30;;;;;;;5.95;1.17;;;;;;;2.14;70.57;102452.47;5022839;28;20041;-63
2024/01/31 04:05:55;;;;;;;4.25;1.25;;;;;;;2.14;70.32;102452.47;5022632;28;20032;-63
2024/01/31 04:08:21;;;;;;;4.38;1.25;;;;;;;2.17;69.67;102448.09;5022761;28;20368;-62
2024/01/31 04:10:46;;;;;;;3.15;1.05;;;;;;;2.19;70.17;102450.63;5024112;28;20056;-61
2024/01/31 04:13:12;;;;;;;5.15;1.38;;;;;;;2.16;70.43;102454.13;5022930;28;20322;-63
2024/01/31 04:15:37;;;;;;;2.72;1.00;;;;;;;2.14;70.13;102453.31;5027333;28;20041;-63
2024/01/31 04:18:03;;;;;;;3.90;1.13;;;;;;;2.12;70.75;102457.66;5021599;28;20037;-63
2024/01/31 04:20:28;;;;;;;5.20;1.15;;;;;;;2.09;70.74;102455.19;5021140;28;20462;-63
2024/01/31 04:22:54;;;;;;;4.75;1.00;;;;;;;2.06;71.02;102450.13;5025708;28;20028;-63
2024/01/31 04:25:20;;;;;;;5.63;1.65;;;;;;;1.98;71.81;102445.19;5022156;28;20412;-63
2024/01/31 04:27:45;;;;;;;2.13;1.10;;;;;;;1.91;72.04;102447.94;5037056;28;20033;-63
2024/01/31 04:30:11;;;;;;;2.42;1.00;;;;;;;1.91;71.67;102450.53;5027277;28;20051;-63
2024/01/31 04:32:37;;;;;;;6.10;1.88;;;;;;;1.92;71.25;102453.06;5024116;28;20441;-63
2024/01/31 04:35:03;;;;;;;3.53;1.08;;;;;;;1.94;71.41;102453.00;5024135;28;20048;-62
2024/01/31 04:37:29;;;;;;;6.53;1.23;;;;;;;1.91;71.44;102451.38;5020951;28;20037;-63
2024/01/31 04:39:54;;;;;;;3.72;1.30;;;;;;;1.91;71.48;102450.53;5022477;28;20029;-63
2024/01/31 04:42:20;;;;;;;3.75;1.20;;;;;;;1.90;71.86;102453.97;5034322;28;20029;-62
2024/01/31 04:44:45;;;;;;;9.27;1.17;;;;;;;1.93;71.70;102462.44;5028239;28;20036;-63
2024/01/31 04:47:12;;;;;;;4.88;1.17;;;;;;;1.91;71.22;102459.06;5030178;28;20972;-63
2024/01/31 04:49:37;;;;;;;3.05;1.17;;;;;;;1.87;71.88;102460.06;5026799;28;20112;-63
2024/01/31 04:52:03;;;;;;;4.22;1.10;;;;;;;1.86;71.87;102467.81;5022209;28;20040;-63
2024/01/31 04:54:28;;;;;;;3.50;1.42;;;;;;;1.86;71.53;102463.53;5020571;28;20032;-63
2024/01/31 04:56:54;;;;;;;6.47;1.67;;;;;;;1.86;71.63;102452.41;5029481;28;20225;-63
2024/01/31 04:59:20;;;;;;;3.92;1.00;;;;;;;1.82;71.70;102443.91;5031448;28;20047;-63
2024/01/31 05:01:45;;;;;;;4.13;0.98;;;;;;;1.76;72.07;102458.66;5027109;28;20037;-63
2024/01/31 05:04:11;;;;;;;7.07;1.05;;;;;;;1.72;72.08;102455.31;5022653;28;20504;-63
2024/01/31 05:06:36;;;;;;;4.07;1.15;;;;;;;1.69;72.58;102460.53;5020797;28;20075;-63
2024/01/31 05:09:02;;;;;;;4.43;1.23;;;;;;;1.72;72.09;102462.19;5044565;28;20025;-63
2024/01/31 05:11:27;;;;;;;5.50;1.20;;;;;;;1.72;72.03;102469.91;5021170;28;20204;-63
2024/01/31 05:13:53;;;;;;;4.65;2.05;;;;;;;1.53;73.28;102460.06;5020671;28;20166;-62
2024/01/31 05:16:18;;;;;;;9.60;2.60;;;;;;;1.09;74.69;102468.00;5029963;28;20054;-62
2024/01/31 05:18:44;;;;;;;9.35;2.35;;;;;;;1.04;74.86;102467.25;5025787;28;20128;-62
2024/01/31 05:21:10;;;;;;;8.23;2.03;;;;;;;1.00;75.00;102462.19;5019623;28;20048;-63
2024/01/31 05:23:37;;;;;;;10.30;2.20;;;;;;;0.95;75.53;102464.00;5027510;28;20460;-62
2024/01/31 05:26:09;;;;;;;5.50;1.98;;;;;;;0.95;75.62;102466.59;5026878;28;20465;-63
2024/01/31 05:28:35;;;;;;;4.97;2.08;;;;;;;1.06;75.12;102474.03;5030446;28;20032;-63
2024/01/31 05:31:01;;;;;;;4.30;1.35;;;;;;;1.23;74.35;102471.09;5030661;28;20035;-62
2024/01/31 05:33:26;;;;;;;5.00;1.10;;;;;;;1.39;73.75;102467.28;5026377;28;20045;-62
2024/01/31 05:35:52;;;;;;;4.55;1.10;;;;;;;1.51;72.87;102474.69;5022585;28;21345;-63
2024/01/31 05:38:17;;;;;;;3.58;1.30;;;;;;;1.55;72.71;102472.88;5023138;28;20033;-62
2024/01/31 05:40:44;;;;;;;6.65;1.25;;;;;;;1.47;73.63;102472.22;5026834;28;20040;-62
2024/01/31 05:43:10;;;;;;;3.35;1.38;;;;;;;1.48;73.56;102473.91;5027388;28;20150;-63
2024/01/31 05:45:37;;;;;;;5.18;1.60;;;;;;;1.49;73.14;102473.88;5040191;28;20025;-62
2024/01/31 05:48:03;;;;;;;7.38;1.95;;;;;;;1.44;73.72;102470.56;5044382;28;20071;-62
2024/01/31 05:50:28;;;;;;;10.45;1.10;;;;;;;1.45;73.70;102473.97;5047016;28;20036;-62
2024/01/31 05:52:54;;;;;;;4.55;0.98;;;;;;;1.46;73.46;102479.09;5047635;28;20082;-63
2024/01/31 05:55:19;;;;;;;4.35;1.77;;;;;;;1.44;73.84;102482.56;5048091;28;20037;-62
2024/01/31 05:57:51;;;;;;;4.43;1.20;;;;;;;1.42;73.90;102480.03;5047648;28;20421;-63
2024/01/31 06:00:17;;;;;;;5.50;1.25;;;;;;;1.42;73.81;102480.03;5048016;28;20048;-62
2024/01/31 06:02:43;;;;;;;4.57;1.77;;;;;;;1.39;74.05;102487.00;5048081;28;20037;-62
2024/01/31 06:05:08;;;;;;;5.30;1.38;;;;;;;1.39;74.25;102479.28;5048637;28;20116;-63
2024/01/31 06:07:34;;;;;;;4.03;1.20;;;;;;;1.36;74.36;102480.22;5046700;28;20481;-63
2024/01/31 06:09:59;;;;;;;6.00;1.35;;;;;;;1.41;74.01;102480.94;5048478;28;20091;-62
2024/01/31 06:12:26;;;;;;;5.80;2.22;;;;;;;1.40;73.72;102479.25;5048175;28;20128;-62
2024/01/31 06:14:51;;;;;;;4.85;1.15;;;;;;;1.41;74.07;102475.81;5047535;28;20025;-62
2024/01/31 06:17:17;;;;;;;2.53;1.02;;;;;;;1.43;73.25;102474.00;5047669;28;20040;-62
2024/01/31 06:19:46;;;;;;;4.47;1.67;;;;;;;1.45;73.52;102479.97;5049792;28;20033;-62
2024/01/31 06:22:11;;;;;;;7.18;1.80;;;;;;;1.48;73.29;102481.63;5046202;28;20512;-62
2024/01/31 06:24:36;;;;;;;3.67;1.08;;;;;;;1.49;72.95;102479.00;5047214;28;20057;-62
2024/01/31 06:27:02;;;;;;;4.13;1.05;;;;;;;1.49;73.05;102473.88;5048007;28;20120;-62
2024/01/31 06:29:27;;;;;;;4.80;1.77;;;;;;;1.52;72.72;102462.69;5050693;28;20020;-64
2024/01/31 06:31:59;;;;;;;7.88;1.67;;;;;;;1.50;73.21;102472.16;5047181;28;20080;-62
2024/01/31 06:34:25;;;;;;;4.43;1.40;;;;;;;1.49;73.06;102479.00;5045738;28;20096;-62
2024/01/31 06:36:50;;;;;;;2.28;0.68;;;;;;;1.51;72.99;102484.94;5048121;28;20033;-63
2024/01/31 06:39:16;;;;;;;5.22;1.58;;;;;;;1.49;73.20;102489.28;5050289;28;20568;-62
2024/01/31 06:41:41;;;;;;;4.47;1.48;;;;;;;1.46;73.43;102473.94;5053434;28;20037;-64
2024/01/31 06:44:07;;;;;;;3.67;1.33;;;;;;;1.48;72.80;102476.47;5049781;28;20032;-63
2024/01/31 06:46:32;;;;;;;4.15;1.63;;;;;;;1.49;73.22;102479.00;5051419;28;20036;-62
2024/01/31 06:48:58;;;;;;;7.97;1.35;;;;;;;1.47;73.29;102488.47;5052251;28;20028;-63
2024/01/31 06:51:24;;;;;;;5.15;1.65;;;;;;;1.46;73.57;102491.94;5052153;28;20095;-62
2024/01/31 06:53:49;;;;;;;4.45;1.25;;;;;;;1.44;73.63;102487.72;5055823;28;20021;-63
2024/01/31 06:56:19;;;;;;;11.30;1.45;;;;;;;1.42;73.68;102472.31;5051309;28;20040;-62
2024/01/31 06:58:48;;;;;;;4.28;1.38;;;;;;;1.42;73.50;102476.66;5050633;28;20117;-62
2024/01/31 07:01:15;;;;;;;5.18;1.23;;;;;;;1.42;73.41;102472.31;5050328;28;20040;-62
2024/01/31 07:03:40;;;;;;;4.18;1.30;;;;;;;1.43;73.83;102471.44;5050321;28;20472;-62
2024/01/31 07:06:06;;;;;;;4.32;1.55;;;;;;;1.49;73.16;102484.16;5049785;28;20174;-62
2024/01/31 07:08:31;;;;;;;7.57;2.40;;;;;;;1.47;73.65;102479.94;5047824;28;20021;-62
2024/01/31 07:10:57;;;;;;;4.20;1.25;;;;;;;1.49;73.18;102473.88;5051163;28;20114;-62
2024/01/31 07:13:22;;;;;;;3.97;1.45;;;;;;;1.55;73.21;102475.44;5050305;28;20037;-62
2024/01/31 07:15:48;;;;;;;12.38;2.13;;;;;;;1.55;72.89;102473.72;5050442;28;20174;-62
2024/01/31 07:18:13;;;;;;;4.45;1.25;;;;;;;1.55;73.10;102483.16;5051659;28;20033;-62
2024/01/31 07:20:38;;;;;;;5.22;2.03;;;;;;;1.58;73.33;102483.09;5049839;28;20043;-62
2024/01/31 07:23:04;;;;;;;5.57;2.03;;;;;;;1.60;73.05;102474.44;5051083;28;20508;-62
2024/01/31 07:25:29;;;;;;;10.85;1.73;;;;;;;1.63;72.89;102486.38;5050891;28;20520;-62
2024/01/31 07:27:56;;;;;;;7.57;2.17;;;;;;;1.69;72.32;102487.97;5049297;28;20028;-62
2024/01/31 07:30:21;;;;;;;3.15;1.15;;;;;;;1.76;72.33;102492.91;5057495;28;20029;-62
2024/01/31 07:32:47;;;;;;;9.63;1.48;;;;;;;1.85;72.45;102494.41;5050191;28;20512;-62
2024/01/31 07:35:12;;;;;;;5.25;1.73;;;;;;;1.91;72.29;102504.50;5050952;28;20032;-62
2024/01/31 07:37:38;;;;;;;4.43;1.27;;;;;;;1.94;72.06;102499.28;5050002;28;20090;-62
2024/01/31 07:40:09;;;;;;;3.97;1.25;;;;;;;1.97;71.75;102491.50;5051569;28;20388;-63
2024/01/31 07:42:36;;;;;;;5.70;0.80;;;;;;;1.98;71.54;102499.16;5049382;28;20127;-62
2024/01/31 07:45:02;;;;;;;13.65;1.35;;;;;;;2.00;71.10;102494.81;5046573;28;20095;-62
2024/01/31 07:47:28;;;;;;;7.18;2.05;;;;;;;1.99;71.22;102494.88;5050561;28;20040;-62
2024/01/31 07:49:53;;;;;;;6.05;1.45;;;;;;;1.96;71.03;102498.38;5043776;28;20376;-62
2024/01/31 07:52:19;;;;;;;5.20;1.20;;;;;;;1.93;71.68;102501.00;5051035;28;20087;-62
2024/01/31 07:54:44;;;;;;;2.85;1.42;;;;;;;1.92;72.02;102508.75;5050413;28;20154;-62
2024/01/31 07:57:10;;;;;;;2.38;1.05;;;;;;;1.90;71.87;102505.38;5051117;28;20078;-62
2024/01/31 07:59:35;;;;;;;6.53;1.65;;;;;;;1.94;71.90;102507.00;5048430;28;20037;-63
2024/01/31 08:02:01;;;;;;;3.40;0.98;;;;;;;1.97;71.54;102507.75;5046358;28;20109;-63
2024/01/31 08:04:26;;;;;;;5.20;1.50;;;;;;;2.02;71.23;102510.22;5047381;28;20033;-62
2024/01/31 08:06:52;;;;;;;5.38;1.42;;;;;;;2.04;71.62;102508.44;5049540;28;20029;-62
2024/01/31 08:09:18;;;;;;;3.78;1.35;;;;;;;2.07;71.33;102507.53;5050214;28;20184;-62
2024/01/31 08:11:44;;;;;;;8.75;1.02;;;;;;;2.11;71.65;102509.97;5049255;28;20033;-63
2024/01/31 08:14:10;;;;;;;8.05;1.05;;;;;;;2.17;70.81;102501.25;5044433;28;20025;-62
2024/01/31 08:16:36;;;;;;;10.35;1.75;;;;;;;2.26;70.45;102503.59;5049708;28;20083;-62
2024/01/31 08:19:02;;;;;;;6.80;1.42;;;;;;;2.38;70.92;102504.97;5050907;28;20361;-62
2024/01/31 08:21:29;;;;;;;6.40;0.98;;;;;;;2.49;69.49;102500.34;5049747;28;20114;-62
2024/01/31 08:23:55;;;;;;;2.85;0.77;;;;;;;2.59;69.55;102509.50;5050251;28;20082;-62
2024/01/31 08:26:22;;;;;;;4.35;1.00;;;;;;;2.63;69.45;102508.53;5050931;28;20041;-63
2024/01/31 08:28:48;;;;;;;3.45;1.25;;;;;;;2.75;69.17;102517.66;5049625;28;20039;-63
2024/01/31 08:31:14;;;;;;;4.68;1.58;;;;;;;2.90;67.76;102522.31;5045932;28;20381;-62
2024/01/31 08:33:39;;;;;;;7.82;1.88;;;;;;;2.93;68.22;102520.50;5047998;28;20040;-62
2024/01/31 08:36:05;;;;;;;5.07;1.33;;;;;;;3.03;68.14;102533.09;5049963;28;20020;-62
2024/01/31 08:38:30;;;;;;;3.97;1.40;;;;;;;3.15;67.38;102527.59;5049562;28;20029;-63
2024/01/31 08:40:56;;;;;;;6.43;1.48;;;;;;;3.23;67.57;102525.63;5057302;28;20033;-62
2024/01/31 08:43:21;;;;;;;4.82;1.30;;;;;;;3.21;67.87;102519.69;5049027;28;20025;-62
2024/01/31 08:45:47;;;;;;;8.43;1.30;;;;;;;3.35;67.54;102520.06;5048859;28;20028;-62
2024/01/31 08:48:12;;;;;;;8.32;1.80;;;;;;;3.45;67.21;102521.47;5049615;28;20021;-62
2024/01/31 08:50:38;;;;;;;4.25;1.05;;;;;;;3.53;66.98;102524.66;5049497;28;20049;-62
2024/01/31 08:53:03;;;;;;;4.45;1.55;;;;;;;3.58;66.91;102522.78;5049789;28;20115;-62
2024/01/31 08:55:29;;;;;;;3.85;1.20;;;;;;;3.70;66.03;102528.44;5049422;28;20118;-62
2024/01/31 08:57:54;;;;;;;2.40;0.90;;;;;;;3.86;65.67;102507.22;5049048;28;20448;-64
2024/01/31 09:00:20;;;;;;;7.10;1.30;;;;;;;3.98;65.94;102516.28;5048383;28;20033;-63
2024/01/31 09:02:45;;;;;;;6.10;1.50;;;;;;;4.06;64.90;102522.03;5048400;28;20099;-63
2024/01/31 09:05:11;;;;;;;5.88;1.20;;;;;;;4.21;64.51;102506.03;5048795;28;20370;-62
2024/01/31 09:07:37;;;;;;;4.32;0.88;;;;;;;4.29;64.25;102506.56;5048823;28;20033;-62
2024/01/31 09:10:03;;;;;;;3.03;1.25;;;;;;;4.32;64.26;102500.44;5049270;28;20025;-62
2024/01/31 09:12:29;;;;;;;4.30;1.08;;;;;;;4.47;63.92;102499.06;5048608;28;20514;-63
2024/01/31 09:14:55;;;;;;;3.10;1.33;;;;;;;4.63;63.27;102498.44;5047604;28;20042;-62
2024/01/31 09:17:20;;;;;;;3.78;1.45;;;;;;;4.76;63.22;102498.81;5045231;28;20029;-62
2024/01/31 09:19:46;;;;;;;3.95;1.25;;;;;;;4.84;62.45;102499.38;5044980;28;20096;-62
2024/01/31 09:22:11;;;;;;;6.88;1.85;;;;;;;4.91;62.34;102495.66;5047393;28;20025;-63
2024/01/31 09:24:37;;;;;;;4.68;0.95;;;;;;;5.00;63.72;102500.47;5047948;28;20024;-63
2024/01/31 09:27:03;;;;;;;4.35;1.55;;;;;;;5.06;64.20;102498.56;5044842;28;20041;-63
2024/01/31 09:29:28;;;;;;;9.73;1.98;;;;;;;5.23;62.82;102501.31;5048821;28;20059;-62
2024/01/31 09:31:54;;;;;;;4.70;1.48;;;;;;;5.35;62.69;102506.00;5049368;28;20044;-62
2024/01/31 09:34:19;;;;;;;4.75;1.60;;;;;;;5.49;62.33;102497.69;5048851;28;20128;-62
2024/01/31 09:36:45;;;;;;;4.93;1.52;;;;;;;5.61;62.08;102498.03;5048529;28;20036;-63
2024/01/31 09:39:11;;;;;;;3.75;1.60;;;;;;;5.52;62.25;102508.75;5048190;28;20119;-62
2024/01/31 09:41:37;;;;;;;2.83;1.02;;;;;;;5.44;62.14;102502.19;5048173;28;20556;-63
2024/01/31 09:44:03;;;;;;;4.57;1.70;;;;;;;5.45;62.72;102496.97;5048869;28;20074;-62
2024/01/31 09:46:30;;;;;;;5.15;1.63;;;;;;;5.42;63.97;102504.00;5047620;28;20028;-63
2024/01/31 09:48:55;;;;;;;7.20;2.40;;;;;;;5.41;63.13;102499.72;5054478;28;20037;-63
2024/01/31 09:51:22;;;;;;;10.25;1.63;;;;;;;5.55;62.48;102493.09;5050297;28;20036;-63
2024/01/31 09:53:51;;;;;;;5.05;2.47;;;;;;;5.72;61.59;102491.53;5045187;28;20393;-63
2024/01/31 09:56:17;;;;;;;5.18;1.60;;;;;;;5.86;62.88;102489.22;5047813;28;20060;-63
2024/01/31 09:58:43;;;;;;;5.18;1.67;;;;;;;5.90;61.82;102485.63;5044846;28;20029;-63
2024/01/31 10:01:09;;;;;;;12.60;1.88;;;;;;;6.18;59.87;102478.34;5047245;28;20411;-63
2024/01/31 10:03:34;;;;;;;4.53;1.05;;;;;;;6.23;59.33;102486.75;5046444;28;20459;-63
2024/01/31 10:06:03;;;;;;;5.20;1.20;;;;;;;6.23;58.70;102476.41;5049071;28;20043;-63
2024/01/31 10:08:29;;;;;;;6.40;1.05;;;;;;;6.27;59.39;102477.94;5045028;28;20476;-63
2024/01/31 10:10:55;;;;;;;3.92;1.50;;;;;;;6.29;59.66;102470.94;5048799;28;20043;-63
2024/01/31 10:13:21;;;;;;;4.07;0.98;;;;;;;6.46;57.80;102467.63;5051345;28;20416;-63
2024/01/31 10:15:46;;;;;;;3.55;0.73;;;;;;;6.49;59.01;102464.06;5051596;28;20024;-63
2024/01/31 10:18:12;;;;;;;2.67;0.75;;;;;;;6.48;58.59;102452.84;5052711;28;20033;-63
2024/01/31 10:20:38;;;;;;;3.53;0.63;;;;;;;6.52;59.72;102448.38;5051764;28;20033;-63
2024/01/31 10:23:03;;;;;;;3.15;0.70;;;;;;;6.38;60.35;102448.16;5052536;28;20397;-63
2024/01/31 10:25:30;;;;;;;9.75;0.90;;;;;;;6.55;58.26;102450.81;5029600;28;20041;-63
2024/01/31 10:27:55;;;;;;;3.78;0.60;;;;;;;6.73;58.58;102439.59;5051748;28;20039;-63
2024/01/31 10:30:21;;;;;;;3.00;0.73;;;;;;;6.84;59.19;102439.09;5050119;28;20431;-63
2024/01/31 10:32:47;;;;;;;7.32;1.08;;;;;;;6.80;58.99;102433.22;5054729;28;20493;-63
2024/01/31 10:35:14;;;;;;;4.28;0.57;;;;;;;6.85;58.69;102433.84;5046412;28;20068;-66
2024/01/31 10:37:39;;;;;;;5.80;0.63;;;;;;;7.00;57.95;102434.88;5051381;28;20049;-66
2024/01/31 10:40:06;;;;;;;2.00;0.47;;;;;;;7.03;57.52;102436.47;5049048;28;20786;-66
2024/01/31 10:42:32;;;;;;;2.50;0.75;;;;;;;7.04;56.79;102426.03;5051839;28;20129;-66
2024/01/31 10:44:58;;;;;;;2.47;0.75;;;;;;;7.10;56.72;102423.13;5052361;28;20021;-66
2024/01/31 10:47:24;;;;;;;2.13;0.50;;;;;;;7.21;57.73;102420.00;5044438;28;20036;-66
2024/01/31 10:49:50;;;;;;;2.53;0.90;;;;;;;7.28;55.21;102413.59;5052312;28;20033;-66
2024/01/31 10:52:20;;;;;;;4.00;0.75;;;;;;;7.35;57.26;102411.56;5045799;28;20037;-66
2024/01/31 10:54:58;;;;;;;1.88;1.17;;;;;;;7.45;55.64;102412.78;5047060;28;20033;-63
2024/01/31 10:57:25;;;;;;;3.30;0.98;;;;;;;7.43;57.93;102405.06;5055008;28;20076;-63
2024/01/31 10:59:51;;;;;;;4.20;0.60;;;;;;;7.45;58.41;102403.25;5054364;28;20821;-63
2024/01/31 11:02:17;;;;;;;7.57;0.60;;;;;;;7.51;58.16;102389.97;5052462;28;20045;-63
2024/01/31 11:04:43;;;;;;;1.98;0.63;;;;;;;7.50;58.03;102390.03;5047185;28;20135;-63
2024/01/31 11:07:19;;;;;;;3.13;0.82;;;;;;;7.79;55.82;102391.97;5045286;28;20057;-63
2024/01/31 11:09:46;;;;;;;1.90;0.50;;;;;;;7.89;56.98;102384.53;5051263;28;20029;-63
2024/01/31 11:12:13;;;;;;;2.42;0.40;;;;;;;7.96;55.86;102385.91;5051164;28;20044;-63
2024/01/31 11:14:40;;;;;;;2.17;0.43;;;;;;;8.11;56.10;102385.06;5050002;28;20032;-63
2024/01/31 11:17:09;;;;;;;3.17;0.98;;;;;;;7.94;57.47;102374.75;5051501;28;20040;-63
2024/01/31 11:20:03;;;;;;;2.65;0.80;;;;;;;7.68;58.84;102373.50;5050912;28;20033;-64
2024/01/31 11:37:39;;;;;;;4.55;1.80;;;;;;;8.43;57.39;102351.38;5235649;23;20119;-63
2024/01/31 11:40:06;;;;;;;4.78;1.35;;;;;;;8.53;57.47;102349.91;5009269;28;20030;-63
2024/01/31 11:42:32;;;;;;;2.63;1.02;;;;;;;8.62;58.15;102339.00;5009866;28;20391;-62